sensor_id;sensor_type;location;lat;lon;timestamp;P1;durP1;ratioP1;P2;durP2;ratioP2
50393;SDS011;36308;46.312;25.288;2023-04-10T00:01:34;16.33;;;9.95;;
50393;SDS011;36308;46.312;25.288;2023-04-10T00:04:00;19.33;;;11.20;;
50393;SDS011;36308;46.312;25.288;2023-04-10T00:06:27;19.30;;;11.52;;
50393;SDS011;36308;46.312;25.288;2023-04-10T00:08:53;24.27;;;11.93;;
50393;SDS011;36308;46.312;25.288;2023-04-10T00:11:18;24.17;;;12.45;;
50393;SDS011;36308;46.312;25.288;2023-04-10T00:13:44;20.05;;;10.90;;
50393;SDS011;36308;46.312;25.288;2023-04-10T00:16:09;27.52;;;13.05;;
50393;SDS011;36308;46.312;25.288;2023-04-10T00:18:35;23.58;;;12.55;;
50393;SDS011;36308;46.312;25.288;2023-04-10T00:21:04;23.60;;;11.32;;
50393;SDS011;36308;46.312;25.288;2023-04-10T00:23:30;19.50;;;10.48;;
50393;SDS011;36308;46.312;25.288;2023-04-10T00:25:59;21.48;;;11.27;;
50393;SDS011;36308;46.312;25.288;2023-04-10T00:28:26;19.88;;;10.77;;
50393;SDS011;36308;46.312;25.288;2023-04-10T00:30:51;19.55;;;11.10;;
50393;SDS011;36308;46.312;25.288;2023-04-10T00:33:17;19.48;;;10.77;;
50393;SDS011;36308;46.312;25.288;2023-04-10T00:35:42;18.70;;;10.10;;
50393;SDS011;36308;46.312;25.288;2023-04-10T00:38:08;18.23;;;10.57;;
50393;SDS011;36308;46.312;25.288;2023-04-10T00:40:33;24.23;;;11.70;;
50393;SDS011;36308;46.312;25.288;2023-04-10T00:42:59;24.65;;;10.82;;
50393;SDS011;36308;46.312;25.288;2023-04-10T00:45:25;15.70;;;8.60;;
50393;SDS011;36308;46.312;25.288;2023-04-10T00:47:51;15.35;;;8.50;;
50393;SDS011;36308;46.312;25.288;2023-04-10T00:50:16;17.52;;;9.32;;
50393;SDS011;36308;46.312;25.288;2023-04-10T00:52:43;13.57;;;8.18;;
50393;SDS011;36308;46.312;25.288;2023-04-10T00:55:09;15.35;;;8.77;;
50393;SDS011;36308;46.312;25.288;2023-04-10T00:57:35;13.60;;;8.13;;
50393;SDS011;36308;46.312;25.288;2023-04-10T01:00:02;17.00;;;9.50;;
50393;SDS011;36308;46.312;25.288;2023-04-10T01:02:28;15.40;;;8.38;;
50393;SDS011;36308;46.312;25.288;2023-04-10T01:04:54;19.67;;;11.77;;
50393;SDS011;36308;46.312;25.288;2023-04-10T01:07:26;20.90;;;12.10;;
50393;SDS011;36308;46.312;25.288;2023-04-10T01:09:58;16.67;;;9.85;;
50393;SDS011;36308;46.312;25.288;2023-04-10T01:15:17;16.42;;;9.70;;
50393;SDS011;36308;46.312;25.288;2023-04-10T01:17:54;23.60;;;12.80;;
50393;SDS011;36308;46.312;25.288;2023-04-10T01:20:31;61.78;;;27.98;;
50393;SDS011;36308;46.312;25.288;2023-04-10T01:25:58;58.97;;;27.83;;
50393;SDS011;36308;46.312;25.288;2023-04-10T01:30:53;22.52;;;11.98;;
50393;SDS011;36308;46.312;25.288;2023-04-10T01:33:25;20.83;;;12.15;;
50393;SDS011;36308;46.312;25.288;2023-04-10T01:38:24;19.63;;;11.15;;
50393;SDS011;36308;46.312;25.288;2023-04-10T01:40:53;16.80;;;9.50;;
50393;SDS011;36308;46.312;25.288;2023-04-10T01:43:20;16.02;;;9.35;;
50393;SDS011;36308;46.312;25.288;2023-04-10T01:45:47;22.95;;;14.10;;
50393;SDS011;36308;46.312;25.288;2023-04-10T01:48:15;41.17;;;22.55;;
50393;SDS011;36308;46.312;25.288;2023-04-10T01:50:43;41.92;;;23.67;;
50393;SDS011;36308;46.312;25.288;2023-04-10T01:53:10;27.23;;;14.63;;
50393;SDS011;36308;46.312;25.288;2023-04-10T01:55:37;19.75;;;11.45;;
50393;SDS011;36308;46.312;25.288;2023-04-10T02:00:47;18.90;;;11.60;;
50393;SDS011;36308;46.312;25.288;2023-04-10T02:03:12;26.30;;;15.45;;
50393;SDS011;36308;46.312;25.288;2023-04-10T02:08:21;28.70;;;19.40;;
50393;SDS011;36308;46.312;25.288;2023-04-10T02:11:12;32.70;;;18.40;;
50393;SDS011;36308;46.312;25.288;2023-04-10T02:13:42;34.15;;;18.60;;
50393;SDS011;36308;46.312;25.288;2023-04-10T02:16:07;35.30;;;19.70;;
50393;SDS011;36308;46.312;25.288;2023-04-10T02:18:34;23.52;;;13.80;;
50393;SDS011;36308;46.312;25.288;2023-04-10T02:21:01;21.33;;;12.43;;
50393;SDS011;36308;46.312;25.288;2023-04-10T02:23:28;20.00;;;12.55;;
50393;SDS011;36308;46.312;25.288;2023-04-10T02:25:53;31.50;;;19.88;;
50393;SDS011;36308;46.312;25.288;2023-04-10T02:28:21;25.83;;;16.50;;
50393;SDS011;36308;46.312;25.288;2023-04-10T02:30:47;18.90;;;11.57;;
50393;SDS011;36308;46.312;25.288;2023-04-10T02:33:12;21.15;;;10.73;;
50393;SDS011;36308;46.312;25.288;2023-04-10T02:35:38;17.80;;;10.93;;
50393;SDS011;36308;46.312;25.288;2023-04-10T02:38:03;15.55;;;9.95;;
50393;SDS011;36308;46.312;25.288;2023-04-10T02:40:29;15.23;;;9.65;;
50393;SDS011;36308;46.312;25.288;2023-04-10T02:42:54;15.70;;;9.65;;
50393;SDS011;36308;46.312;25.288;2023-04-10T02:45:20;16.45;;;9.98;;
50393;SDS011;36308;46.312;25.288;2023-04-10T02:47:45;17.10;;;10.40;;
50393;SDS011;36308;46.312;25.288;2023-04-10T02:50:11;17.55;;;10.13;;
50393;SDS011;36308;46.312;25.288;2023-04-10T02:52:36;16.95;;;10.30;;
50393;SDS011;36308;46.312;25.288;2023-04-10T02:55:02;18.58;;;9.77;;
50393;SDS011;36308;46.312;25.288;2023-04-10T02:57:27;15.32;;;8.77;;
50393;SDS011;36308;46.312;25.288;2023-04-10T02:59:53;16.17;;;8.65;;
50393;SDS011;36308;46.312;25.288;2023-04-10T03:02:18;15.82;;;9.18;;
50393;SDS011;36308;46.312;25.288;2023-04-10T03:04:44;15.43;;;8.90;;
50393;SDS011;36308;46.312;25.288;2023-04-10T03:07:09;15.45;;;8.88;;
50393;SDS011;36308;46.312;25.288;2023-04-10T03:09:36;13.52;;;8.50;;
50393;SDS011;36308;46.312;25.288;2023-04-10T03:12:01;14.45;;;8.98;;
50393;SDS011;36308;46.312;25.288;2023-04-10T03:14:27;13.45;;;8.68;;
50393;SDS011;36308;46.312;25.288;2023-04-10T03:16:52;14.73;;;9.15;;
50393;SDS011;36308;46.312;25.288;2023-04-10T03:19:18;17.52;;;10.63;;
50393;SDS011;36308;46.312;25.288;2023-04-10T03:21:44;12.55;;;7.57;;
50393;SDS011;36308;46.312;25.288;2023-04-10T03:24:10;16.40;;;8.88;;
50393;SDS011;36308;46.312;25.288;2023-04-10T03:26:35;16.83;;;9.52;;
50393;SDS011;36308;46.312;25.288;2023-04-10T03:29:01;18.10;;;10.27;;
50393;SDS011;36308;46.312;25.288;2023-04-10T03:31:28;17.50;;;9.85;;
50393;SDS011;36308;46.312;25.288;2023-04-10T03:33:53;20.85;;;9.38;;
50393;SDS011;36308;46.312;25.288;2023-04-10T03:36:19;19.05;;;10.30;;
50393;SDS011;36308;46.312;25.288;2023-04-10T03:38:44;25.02;;;13.93;;
50393;SDS011;36308;46.312;25.288;2023-04-10T03:41:10;23.75;;;13.25;;
50393;SDS011;36308;46.312;25.288;2023-04-10T03:43:35;25.95;;;14.43;;
50393;SDS011;36308;46.312;25.288;2023-04-10T03:46:01;31.00;;;17.13;;
50393;SDS011;36308;46.312;25.288;2023-04-10T03:48:26;28.73;;;16.33;;
50393;SDS011;36308;46.312;25.288;2023-04-10T03:50:54;32.25;;;18.05;;
50393;SDS011;36308;46.312;25.288;2023-04-10T03:53:20;23.23;;;14.60;;
50393;SDS011;36308;46.312;25.288;2023-04-10T03:55:45;23.17;;;13.90;;
50393;SDS011;36308;46.312;25.288;2023-04-10T03:58:11;20.75;;;11.48;;
50393;SDS011;36308;46.312;25.288;2023-04-10T04:00:37;19.10;;;10.63;;
50393;SDS011;36308;46.312;25.288;2023-04-10T04:03:03;18.33;;;10.48;;
50393;SDS011;36308;46.312;25.288;2023-04-10T04:05:29;17.20;;;10.48;;
50393;SDS011;36308;46.312;25.288;2023-04-10T04:07:56;15.45;;;9.27;;
50393;SDS011;36308;46.312;25.288;2023-04-10T04:10:21;14.25;;;8.65;;
50393;SDS011;36308;46.312;25.288;2023-04-10T04:12:48;18.17;;;10.57;;
50393;SDS011;36308;46.312;25.288;2023-04-10T04:15:13;18.05;;;10.57;;
50393;SDS011;36308;46.312;25.288;2023-04-10T04:17:38;17.90;;;10.80;;
50393;SDS011;36308;46.312;25.288;2023-04-10T04:20:04;20.95;;;10.00;;
50393;SDS011;36308;46.312;25.288;2023-04-10T04:22:30;15.98;;;8.82;;
50393;SDS011;36308;46.312;25.288;2023-04-10T04:24:56;17.25;;;10.80;;
50393;SDS011;36308;46.312;25.288;2023-04-10T04:27:21;18.75;;;10.40;;
50393;SDS011;36308;46.312;25.288;2023-04-10T04:29:47;15.80;;;10.18;;
50393;SDS011;36308;46.312;25.288;2023-04-10T04:32:13;18.00;;;10.20;;
50393;SDS011;36308;46.312;25.288;2023-04-10T04:34:38;20.02;;;10.98;;
50393;SDS011;36308;46.312;25.288;2023-04-10T04:37:04;16.98;;;10.57;;
50393;SDS011;36308;46.312;25.288;2023-04-10T04:39:29;19.92;;;10.77;;
50393;SDS011;36308;46.312;25.288;2023-04-10T04:41:55;16.27;;;10.18;;
50393;SDS011;36308;46.312;25.288;2023-04-10T04:44:21;16.73;;;10.27;;
50393;SDS011;36308;46.312;25.288;2023-04-10T04:46:46;18.90;;;11.57;;
50393;SDS011;36308;46.312;25.288;2023-04-10T04:49:12;21.45;;;11.85;;
50393;SDS011;36308;46.312;25.288;2023-04-10T04:51:37;19.02;;;11.82;;
50393;SDS011;36308;46.312;25.288;2023-04-10T04:54:03;36.80;;;20.52;;
50393;SDS011;36308;46.312;25.288;2023-04-10T04:56:29;57.00;;;28.85;;
50393;SDS011;36308;46.312;25.288;2023-04-10T04:58:54;40.95;;;20.60;;
50393;SDS011;36308;46.312;25.288;2023-04-10T05:01:20;29.23;;;17.30;;
50393;SDS011;36308;46.312;25.288;2023-04-10T05:03:45;27.60;;;18.40;;
50393;SDS011;36308;46.312;25.288;2023-04-10T05:06:11;31.40;;;20.27;;
50393;SDS011;36308;46.312;25.288;2023-04-10T05:08:38;31.15;;;20.30;;
50393;SDS011;36308;46.312;25.288;2023-04-10T05:11:03;35.22;;;20.48;;
50393;SDS011;36308;46.312;25.288;2023-04-10T05:13:29;35.38;;;20.83;;
50393;SDS011;36308;46.312;25.288;2023-04-10T05:15:55;34.33;;;22.05;;
50393;SDS011;36308;46.312;25.288;2023-04-10T05:18:20;41.65;;;24.55;;
50393;SDS011;36308;46.312;25.288;2023-04-10T05:20:47;44.25;;;27.25;;
50393;SDS011;36308;46.312;25.288;2023-04-10T05:23:14;33.63;;;19.85;;
50393;SDS011;36308;46.312;25.288;2023-04-10T05:25:40;41.33;;;23.80;;
50393;SDS011;36308;46.312;25.288;2023-04-10T05:28:06;34.42;;;21.92;;
50393;SDS011;36308;46.312;25.288;2023-04-10T05:30:31;35.45;;;21.70;;
50393;SDS011;36308;46.312;25.288;2023-04-10T05:32:57;32.60;;;21.35;;
50393;SDS011;36308;46.312;25.288;2023-04-10T05:35:23;36.50;;;23.27;;
50393;SDS011;36308;46.312;25.288;2023-04-10T05:37:48;35.17;;;21.02;;
50393;SDS011;36308;46.312;25.288;2023-04-10T05:40:14;39.40;;;25.13;;
50393;SDS011;36308;46.312;25.288;2023-04-10T05:42:39;35.78;;;23.73;;
50393;SDS011;36308;46.312;25.288;2023-04-10T05:45:05;37.95;;;24.05;;
50393;SDS011;36308;46.312;25.288;2023-04-10T05:47:31;43.72;;;25.00;;
50393;SDS011;36308;46.312;25.288;2023-04-10T05:49:57;40.78;;;23.92;;
50393;SDS011;36308;46.312;25.288;2023-04-10T05:52:22;39.55;;;21.33;;
50393;SDS011;36308;46.312;25.288;2023-04-10T05:54:48;34.28;;;22.52;;
50393;SDS011;36308;46.312;25.288;2023-04-10T05:57:14;32.20;;;21.30;;
50393;SDS011;36308;46.312;25.288;2023-04-10T05:59:39;31.83;;;20.52;;
50393;SDS011;36308;46.312;25.288;2023-04-10T06:02:05;33.47;;;21.20;;
50393;SDS011;36308;46.312;25.288;2023-04-10T06:04:30;33.78;;;21.05;;
50393;SDS011;36308;46.312;25.288;2023-04-10T06:06:56;32.53;;;20.42;;
50393;SDS011;36308;46.312;25.288;2023-04-10T06:09:22;35.53;;;23.02;;
50393;SDS011;36308;46.312;25.288;2023-04-10T06:11:47;35.45;;;22.42;;
50393;SDS011;36308;46.312;25.288;2023-04-10T06:14:13;34.05;;;20.70;;
50393;SDS011;36308;46.312;25.288;2023-04-10T06:16:38;32.45;;;19.50;;
50393;SDS011;36308;46.312;25.288;2023-04-10T06:19:04;30.67;;;18.83;;
50393;SDS011;36308;46.312;25.288;2023-04-10T06:21:30;31.30;;;17.50;;
50393;SDS011;36308;46.312;25.288;2023-04-10T06:23:56;25.92;;;15.95;;
50393;SDS011;36308;46.312;25.288;2023-04-10T06:26:21;21.58;;;13.63;;
50393;SDS011;36308;46.312;25.288;2023-04-10T06:28:48;25.25;;;15.90;;
50393;SDS011;36308;46.312;25.288;2023-04-10T06:31:13;27.85;;;18.13;;
50393;SDS011;36308;46.312;25.288;2023-04-10T06:33:39;28.85;;;18.38;;
50393;SDS011;36308;46.312;25.288;2023-04-10T06:36:05;28.38;;;16.70;;
50393;SDS011;36308;46.312;25.288;2023-04-10T06:38:30;30.52;;;19.17;;
50393;SDS011;36308;46.312;25.288;2023-04-10T06:40:58;29.73;;;18.30;;
50393;SDS011;36308;46.312;25.288;2023-04-10T06:43:24;28.42;;;17.80;;
50393;SDS011;36308;46.312;25.288;2023-04-10T06:45:51;30.77;;;18.98;;
50393;SDS011;36308;46.312;25.288;2023-04-10T06:48:17;28.75;;;19.25;;
50393;SDS011;36308;46.312;25.288;2023-04-10T06:50:42;33.17;;;19.92;;
50393;SDS011;36308;46.312;25.288;2023-04-10T06:53:09;31.17;;;17.92;;
50393;SDS011;36308;46.312;25.288;2023-04-10T06:55:35;25.83;;;15.75;;
50393;SDS011;36308;46.312;25.288;2023-04-10T06:58:01;63.03;;;31.23;;
50393;SDS011;36308;46.312;25.288;2023-04-10T07:00:27;23.70;;;14.93;;
50393;SDS011;36308;46.312;25.288;2023-04-10T07:02:52;115.63;;;49.67;;
50393;SDS011;36308;46.312;25.288;2023-04-10T07:05:18;22.60;;;13.57;;
50393;SDS011;36308;46.312;25.288;2023-04-10T07:07:43;16.27;;;11.32;;
50393;SDS011;36308;46.312;25.288;2023-04-10T07:10:09;130.25;;;21.48;;
50393;SDS011;36308;46.312;25.288;2023-04-10T07:12:35;20.90;;;13.05;;
50393;SDS011;36308;46.312;25.288;2023-04-10T07:15:00;25.02;;;14.85;;
50393;SDS011;36308;46.312;25.288;2023-04-10T07:17:26;23.33;;;13.95;;
50393;SDS011;36308;46.312;25.288;2023-04-10T07:19:51;21.15;;;13.20;;
50393;SDS011;36308;46.312;25.288;2023-04-10T07:22:17;19.63;;;12.80;;
50393;SDS011;36308;46.312;25.288;2023-04-10T07:24:42;21.35;;;13.70;;
50393;SDS011;36308;46.312;25.288;2023-04-10T07:27:08;17.90;;;12.27;;
50393;SDS011;36308;46.312;25.288;2023-04-10T07:29:33;19.20;;;12.43;;
50393;SDS011;36308;46.312;25.288;2023-04-10T07:31:59;21.05;;;13.52;;
50393;SDS011;36308;46.312;25.288;2023-04-10T07:34:25;20.25;;;13.50;;
50393;SDS011;36308;46.312;25.288;2023-04-10T07:36:50;23.38;;;14.55;;
50393;SDS011;36308;46.312;25.288;2023-04-10T07:39:16;27.02;;;12.70;;
50393;SDS011;36308;46.312;25.288;2023-04-10T07:41:42;17.25;;;11.30;;
50393;SDS011;36308;46.312;25.288;2023-04-10T07:44:08;22.33;;;11.07;;
50393;SDS011;36308;46.312;25.288;2023-04-10T07:46:33;17.98;;;10.65;;
50393;SDS011;36308;46.312;25.288;2023-04-10T07:48:59;16.98;;;11.32;;
50393;SDS011;36308;46.312;25.288;2023-04-10T07:51:25;14.40;;;9.18;;
50393;SDS011;36308;46.312;25.288;2023-04-10T07:53:51;13.68;;;8.98;;
50393;SDS011;36308;46.312;25.288;2023-04-10T07:56:17;14.23;;;9.52;;
50393;SDS011;36308;46.312;25.288;2023-04-10T07:58:44;14.98;;;9.73;;
50393;SDS011;36308;46.312;25.288;2023-04-10T08:01:10;10.73;;;7.38;;
50393;SDS011;36308;46.312;25.288;2023-04-10T08:03:39;10.27;;;7.53;;
50393;SDS011;36308;46.312;25.288;2023-04-10T08:06:09;11.23;;;7.20;;
50393;SDS011;36308;46.312;25.288;2023-04-10T08:08:35;16.67;;;9.65;;
50393;SDS011;36308;46.312;25.288;2023-04-10T08:11:02;10.45;;;6.55;;
50393;SDS011;36308;46.312;25.288;2023-04-10T08:13:29;9.90;;;6.82;;
50393;SDS011;36308;46.312;25.288;2023-04-10T08:15:54;9.90;;;6.63;;
50393;SDS011;36308;46.312;25.288;2023-04-10T08:18:20;14.50;;;6.88;;
50393;SDS011;36308;46.312;25.288;2023-04-10T08:20:45;10.75;;;6.28;;
50393;SDS011;36308;46.312;25.288;2023-04-10T08:23:11;11.00;;;7.55;;
50393;SDS011;36308;46.312;25.288;2023-04-10T08:25:36;20.50;;;12.00;;
50393;SDS011;36308;46.312;25.288;2023-04-10T08:28:02;20.75;;;12.60;;
50393;SDS011;36308;46.312;25.288;2023-04-10T08:30:27;12.90;;;7.13;;
50393;SDS011;36308;46.312;25.288;2023-04-10T08:32:53;10.90;;;7.50;;
50393;SDS011;36308;46.312;25.288;2023-04-10T08:35:18;14.45;;;7.25;;
50393;SDS011;36308;46.312;25.288;2023-04-10T08:37:44;12.02;;;7.95;;
50393;SDS011;36308;46.312;25.288;2023-04-10T08:40:09;13.57;;;8.70;;
50393;SDS011;36308;46.312;25.288;2023-04-10T08:42:36;31.38;;;16.10;;
50393;SDS011;36308;46.312;25.288;2023-04-10T08:45:02;19.80;;;11.50;;
50393;SDS011;36308;46.312;25.288;2023-04-10T08:47:28;10.13;;;7.43;;
50393;SDS011;36308;46.312;25.288;2023-04-10T08:49:59;11.00;;;7.85;;
50393;SDS011;36308;46.312;25.288;2023-04-10T08:52:28;10.90;;;7.90;;
50393;SDS011;36308;46.312;25.288;2023-04-10T08:54:59;12.38;;;8.63;;
50393;SDS011;36308;46.312;25.288;2023-04-10T08:57:30;9.70;;;7.18;;
50393;SDS011;36308;46.312;25.288;2023-04-10T08:59:56;11.63;;;7.20;;
50393;SDS011;36308;46.312;25.288;2023-04-10T09:02:22;12.60;;;8.50;;
50393;SDS011;36308;46.312;25.288;2023-04-10T09:04:49;10.93;;;7.70;;
50393;SDS011;36308;46.312;25.288;2023-04-10T09:07:16;13.82;;;8.52;;
50393;SDS011;36308;46.312;25.288;2023-04-10T09:09:42;16.83;;;9.77;;
50393;SDS011;36308;46.312;25.288;2023-04-10T09:12:08;8.70;;;6.30;;
50393;SDS011;36308;46.312;25.288;2023-04-10T09:14:34;9.48;;;6.75;;
50393;SDS011;36308;46.312;25.288;2023-04-10T09:17:17;7.88;;;6.03;;
50393;SDS011;36308;46.312;25.288;2023-04-10T09:19:50;10.18;;;6.70;;
50393;SDS011;36308;46.312;25.288;2023-04-10T09:22:27;9.68;;;6.65;;
50393;SDS011;36308;46.312;25.288;2023-04-10T09:24:55;11.18;;;5.63;;
50393;SDS011;36308;46.312;25.288;2023-04-10T09:27:27;7.85;;;5.93;;
50393;SDS011;36308;46.312;25.288;2023-04-10T09:30:00;11.35;;;6.80;;
50393;SDS011;36308;46.312;25.288;2023-04-10T09:35:03;11.27;;;6.95;;
50393;SDS011;36308;46.312;25.288;2023-04-10T09:37:33;9.57;;;6.75;;
50393;SDS011;36308;46.312;25.288;2023-04-10T09:40:00;12.05;;;6.68;;
50393;SDS011;36308;46.312;25.288;2023-04-10T09:42:33;8.68;;;5.90;;
50393;SDS011;36308;46.312;25.288;2023-04-10T09:45:01;7.50;;;5.32;;
50393;SDS011;36308;46.312;25.288;2023-04-10T09:47:27;8.38;;;5.97;;
50393;SDS011;36308;46.312;25.288;2023-04-10T09:49:54;9.48;;;6.35;;
50393;SDS011;36308;46.312;25.288;2023-04-10T09:52:30;12.80;;;8.40;;
50393;SDS011;36308;46.312;25.288;2023-04-10T09:54:58;16.25;;;11.35;;
50393;SDS011;36308;46.312;25.288;2023-04-10T09:57:32;26.60;;;17.10;;
50393;SDS011;36308;46.312;25.288;2023-04-10T09:59:59;50.42;;;26.67;;
50393;SDS011;36308;46.312;25.288;2023-04-10T10:02:31;13.85;;;8.43;;
50393;SDS011;36308;46.312;25.288;2023-04-10T10:05:01;15.45;;;9.48;;
50393;SDS011;36308;46.312;25.288;2023-04-10T10:07:28;9.77;;;6.47;;
50393;SDS011;36308;46.312;25.288;2023-04-10T10:09:55;8.32;;;6.45;;
50393;SDS011;36308;46.312;25.288;2023-04-10T10:12:23;8.80;;;5.50;;
50393;SDS011;36308;46.312;25.288;2023-04-10T10:14:59;6.88;;;4.85;;
50393;SDS011;36308;46.312;25.288;2023-04-10T10:17:35;11.90;;;7.47;;
50393;SDS011;36308;46.312;25.288;2023-04-10T10:20:21;17.70;;;9.52;;
50393;SDS011;36308;46.312;25.288;2023-04-10T10:22:50;7.68;;;5.82;;
50393;SDS011;36308;46.312;25.288;2023-04-10T10:25:17;12.45;;;8.35;;
50393;SDS011;36308;46.312;25.288;2023-04-10T10:27:46;26.73;;;17.60;;
50393;SDS011;36308;46.312;25.288;2023-04-10T10:30:16;30.38;;;18.02;;
50393;SDS011;36308;46.312;25.288;2023-04-10T10:32:44;7.15;;;5.20;;
50393;SDS011;36308;46.312;25.288;2023-04-10T10:35:10;6.70;;;5.28;;
50393;SDS011;36308;46.312;25.288;2023-04-10T10:37:37;27.20;;;16.75;;
50393;SDS011;36308;46.312;25.288;2023-04-10T10:40:23;10.50;;;7.10;;
50393;SDS011;36308;46.312;25.288;2023-04-10T10:43:34;19.83;;;12.07;;
50393;SDS011;36308;46.312;25.288;2023-04-10T10:46:31;7.57;;;5.68;;
50393;SDS011;36308;46.312;25.288;2023-04-10T10:49:04;7.32;;;4.95;;
50393;SDS011;36308;46.312;25.288;2023-04-10T10:54:33;7.05;;;5.13;;
50393;SDS011;36308;46.312;25.288;2023-04-10T10:57:00;13.95;;;9.57;;
50393;SDS011;36308;46.312;25.288;2023-04-10T11:02:14;8.68;;;5.80;;
50393;SDS011;36308;46.312;25.288;2023-04-10T11:07:10;11.90;;;9.70;;
50393;SDS011;36308;46.312;25.288;2023-04-10T11:09:49;5.60;;;4.22;;
50393;SDS011;36308;46.312;25.288;2023-04-10T11:12:20;9.15;;;5.72;;
50393;SDS011;36308;46.312;25.288;2023-04-10T11:14:58;11.75;;;7.90;;
50393;SDS011;36308;46.312;25.288;2023-04-10T11:20:18;7.55;;;5.70;;
50393;SDS011;36308;46.312;25.288;2023-04-10T11:23:07;4.80;;;3.75;;
50393;SDS011;36308;46.312;25.288;2023-04-10T11:25:45;5.63;;;3.72;;
50393;SDS011;36308;46.312;25.288;2023-04-10T11:28:55;7.65;;;5.50;;
50393;SDS011;36308;46.312;25.288;2023-04-10T11:31:15;7.38;;;4.68;;
50393;SDS011;36308;46.312;25.288;2023-04-10T11:33:47;8.75;;;4.50;;
50393;SDS011;36308;46.312;25.288;2023-04-10T11:36:14;5.93;;;4.80;;
50393;SDS011;36308;46.312;25.288;2023-04-10T11:38:53;5.68;;;4.07;;
50393;SDS011;36308;46.312;25.288;2023-04-10T11:41:29;7.63;;;5.05;;
50393;SDS011;36308;46.312;25.288;2023-04-10T11:43:59;23.92;;;13.23;;
50393;SDS011;36308;46.312;25.288;2023-04-10T11:46:26;21.85;;;12.90;;
50393;SDS011;36308;46.312;25.288;2023-04-10T11:49:02;12.30;;;7.15;;
50393;SDS011;36308;46.312;25.288;2023-04-10T11:51:30;7.35;;;4.80;;
50393;SDS011;36308;46.312;25.288;2023-04-10T11:56:32;5.85;;;4.63;;
50393;SDS011;36308;46.312;25.288;2023-04-10T11:58:57;5.90;;;4.35;;
50393;SDS011;36308;46.312;25.288;2023-04-10T12:01:23;5.45;;;4.38;;
50393;SDS011;36308;46.312;25.288;2023-04-10T12:03:49;7.03;;;4.57;;
50393;SDS011;36308;46.312;25.288;2023-04-10T12:06:14;17.35;;;12.75;;
50393;SDS011;36308;46.312;25.288;2023-04-10T12:08:46;7.15;;;4.72;;
50393;SDS011;36308;46.312;25.288;2023-04-10T12:11:23;6.47;;;4.78;;
50393;SDS011;36308;46.312;25.288;2023-04-10T12:13:53;9.60;;;5.05;;
50393;SDS011;36308;46.312;25.288;2023-04-10T12:16:19;9.52;;;5.53;;
50393;SDS011;36308;46.312;25.288;2023-04-10T12:18:45;7.97;;;4.28;;
50393;SDS011;36308;46.312;25.288;2023-04-10T12:21:12;5.65;;;4.05;;
50393;SDS011;36308;46.312;25.288;2023-04-10T12:23:38;5.53;;;4.10;;
50393;SDS011;36308;46.312;25.288;2023-04-10T12:26:16;9.57;;;4.53;;
50393;SDS011;36308;46.312;25.288;2023-04-10T12:28:55;4.95;;;3.90;;
50393;SDS011;36308;46.312;25.288;2023-04-10T12:31:29;8.52;;;5.18;;
50393;SDS011;36308;46.312;25.288;2023-04-10T12:33:59;5.32;;;4.28;;
50393;SDS011;36308;46.312;25.288;2023-04-10T12:36:26;18.13;;;4.60;;
50393;SDS011;36308;46.312;25.288;2023-04-10T12:38:57;7.30;;;4.22;;
50393;SDS011;36308;46.312;25.288;2023-04-10T12:41:24;8.13;;;5.15;;
50393;SDS011;36308;46.312;25.288;2023-04-10T12:43:51;8.77;;;5.38;;
50393;SDS011;36308;46.312;25.288;2023-04-10T12:46:30;8.05;;;4.68;;
50393;SDS011;36308;46.312;25.288;2023-04-10T12:48:56;6.60;;;4.68;;
50393;SDS011;36308;46.312;25.288;2023-04-10T12:51:44;6.68;;;4.78;;
50393;SDS011;36308;46.312;25.288;2023-04-10T12:54:10;6.43;;;3.97;;
50393;SDS011;36308;46.312;25.288;2023-04-10T12:56:42;5.63;;;4.18;;
50393;SDS011;36308;46.312;25.288;2023-04-10T12:59:09;14.80;;;10.40;;
50393;SDS011;36308;46.312;25.288;2023-04-10T13:01:38;6.85;;;5.30;;
50393;SDS011;36308;46.312;25.288;2023-04-10T13:04:03;12.90;;;7.18;;
50393;SDS011;36308;46.312;25.288;2023-04-10T13:06:29;5.85;;;4.43;;
50393;SDS011;36308;46.312;25.288;2023-04-10T13:08:55;9.38;;;4.85;;
50393;SDS011;36308;46.312;25.288;2023-04-10T13:11:20;6.65;;;4.28;;
50393;SDS011;36308;46.312;25.288;2023-04-10T13:13:47;6.57;;;4.10;;
50393;SDS011;36308;46.312;25.288;2023-04-10T13:16:13;6.15;;;4.13;;
50393;SDS011;36308;46.312;25.288;2023-04-10T13:18:39;6.28;;;4.53;;
50393;SDS011;36308;46.312;25.288;2023-04-10T13:21:05;8.10;;;4.93;;
50393;SDS011;36308;46.312;25.288;2023-04-10T13:23:30;7.40;;;5.10;;
50393;SDS011;36308;46.312;25.288;2023-04-10T13:25:56;7.72;;;5.72;;
50393;SDS011;36308;46.312;25.288;2023-04-10T13:28:23;7.55;;;5.40;;
50393;SDS011;36308;46.312;25.288;2023-04-10T13:30:48;9.05;;;5.95;;
50393;SDS011;36308;46.312;25.288;2023-04-10T13:33:14;6.00;;;4.45;;
50393;SDS011;36308;46.312;25.288;2023-04-10T13:35:40;7.05;;;4.93;;
50393;SDS011;36308;46.312;25.288;2023-04-10T13:38:05;6.57;;;4.72;;
50393;SDS011;36308;46.312;25.288;2023-04-10T13:43:16;5.68;;;4.40;;
50393;SDS011;36308;46.312;25.288;2023-04-10T13:45:42;6.97;;;5.28;;
50393;SDS011;36308;46.312;25.288;2023-04-10T13:48:07;11.82;;;9.18;;
50393;SDS011;36308;46.312;25.288;2023-04-10T13:50:33;7.53;;;4.45;;
50393;SDS011;36308;46.312;25.288;2023-04-10T13:52:58;6.97;;;4.43;;
50393;SDS011;36308;46.312;25.288;2023-04-10T13:55:24;6.55;;;4.60;;
50393;SDS011;36308;46.312;25.288;2023-04-10T13:57:49;8.45;;;5.97;;
50393;SDS011;36308;46.312;25.288;2023-04-10T14:00:15;12.32;;;7.25;;
50393;SDS011;36308;46.312;25.288;2023-04-10T14:02:41;9.75;;;7.15;;
50393;SDS011;36308;46.312;25.288;2023-04-10T14:05:07;8.77;;;5.63;;
50393;SDS011;36308;46.312;25.288;2023-04-10T14:07:33;11.98;;;7.63;;
50393;SDS011;36308;46.312;25.288;2023-04-10T14:09:59;8.52;;;5.97;;
50393;SDS011;36308;46.312;25.288;2023-04-10T14:12:25;10.30;;;7.25;;
50393;SDS011;36308;46.312;25.288;2023-04-10T14:14:51;15.18;;;9.88;;
50393;SDS011;36308;46.312;25.288;2023-04-10T14:17:17;9.18;;;6.15;;
50393;SDS011;36308;46.312;25.288;2023-04-10T14:19:42;10.45;;;7.00;;
50393;SDS011;36308;46.312;25.288;2023-04-10T14:22:10;13.15;;;8.80;;
50393;SDS011;36308;46.312;25.288;2023-04-10T14:24:36;14.27;;;9.10;;
50393;SDS011;36308;46.312;25.288;2023-04-10T14:27:01;14.60;;;10.60;;
50393;SDS011;36308;46.312;25.288;2023-04-10T14:29:27;12.63;;;8.88;;
50393;SDS011;36308;46.312;25.288;2023-04-10T14:31:53;13.02;;;8.15;;
50393;SDS011;36308;46.312;25.288;2023-04-10T14:34:18;13.38;;;8.38;;
50393;SDS011;36308;46.312;25.288;2023-04-10T14:36:44;11.95;;;8.60;;
50393;SDS011;36308;46.312;25.288;2023-04-10T14:39:09;14.98;;;9.45;;
50393;SDS011;36308;46.312;25.288;2023-04-10T14:41:35;15.35;;;8.40;;
50393;SDS011;36308;46.312;25.288;2023-04-10T14:44:01;11.80;;;8.38;;
50393;SDS011;36308;46.312;25.288;2023-04-10T14:46:27;11.02;;;8.43;;
50393;SDS011;36308;46.312;25.288;2023-04-10T14:48:52;11.85;;;7.70;;
50393;SDS011;36308;46.312;25.288;2023-04-10T14:51:18;10.13;;;6.57;;
50393;SDS011;36308;46.312;25.288;2023-04-10T14:53:43;8.10;;;6.00;;
50393;SDS011;36308;46.312;25.288;2023-04-10T14:56:13;10.05;;;6.50;;